createdAt,value
2018-04-01T00:00:56.197Z,1.50
2018-04-01T00:03:24.099Z,1.50
2018-04-01T00:05:51.208Z,1.50
2018-04-01T00:08:19.093Z,1.50
2018-04-01T00:10:46.208Z,1.50
2018-04-01T00:13:13.342Z,1.50
2018-04-01T00:15:40.448Z,1.50
2018-04-01T00:18:07.576Z,1.50
2018-04-01T00:20:35.464Z,1.50
2018-04-01T00:23:02.571Z,1.50
2018-04-01T00:25:29.695Z,1.50
2018-04-01T00:27:56.788Z,1.50
2018-04-01T00:30:24.680Z,1.40
2018-04-01T00:32:51.769Z,1.40
2018-04-01T00:35:18.895Z,1.50
2018-04-01T00:37:45.983Z,1.50
2018-04-01T00:40:13.092Z,1.50
2018-04-01T00:42:40.191Z,1.50
2018-04-01T00:45:08.096Z,1.50
2018-04-01T00:47:35.201Z,1.40
2018-04-01T00:50:03.121Z,1.40
2018-04-01T00:52:30.208Z,1.40
2018-04-01T00:54:57.383Z,1.40
2018-04-01T00:57:25.249Z,1.40
2018-04-01T00:59:52.363Z,1.40
2018-04-01T01:02:19.456Z,1.40
2018-04-01T01:04:46.585Z,1.40
2018-04-01T01:07:14.460Z,1.40
2018-04-01T01:09:41.570Z,1.40
2018-04-01T01:12:08.929Z,1.40
2018-04-01T01:14:36.024Z,1.30
2018-04-01T01:17:03.130Z,1.30
2018-04-01T01:19:30.232Z,1.20
2018-04-01T01:21:57.367Z,1.30
2018-04-01T01:24:24.462Z,1.30
2018-04-01T01:26:51.654Z,1.30
2018-04-01T01:29:18.772Z,1.30
2018-04-01T01:31:45.895Z,1.30
2018-04-01T01:34:12.981Z,1.30
2018-04-01T01:36:40.851Z,1.20
2018-04-01T01:39:08.842Z,1.30
2018-04-01T01:41:35.932Z,1.20
2018-04-01T01:44:03.118Z,1.30
2018-04-01T01:46:30.976Z,1.20
2018-04-01T01:48:59.011Z,1.20
2018-04-01T01:51:26.108Z,1.20
2018-04-01T01:53:54.008Z,1.30
2018-04-01T01:56:21.115Z,1.20
2018-04-01T01:58:49.013Z,1.30
2018-04-01T02:01:16.140Z,1.20
2018-04-01T02:03:43.234Z,1.30
2018-04-01T02:06:10.348Z,1.20
2018-04-01T02:08:37.439Z,1.20
2018-04-01T02:11:04.548Z,1.30
2018-04-01T02:13:31.659Z,1.30
2018-04-01T02:15:58.789Z,1.30
2018-04-01T02:18:25.874Z,1.20
2018-04-01T02:20:53.783Z,1.30
2018-04-01T02:23:21.678Z,1.30
2018-04-01T02:25:48.772Z,1.20
2018-04-01T02:28:15.878Z,1.20
2018-04-01T02:30:42.979Z,1.20
2018-04-01T02:33:10.108Z,1.20
2018-04-01T02:35:37.213Z,1.20
2018-04-01T02:38:04.330Z,1.20
2018-04-01T02:40:31.450Z,1.20
2018-04-01T02:42:58.588Z,1.20
2018-04-01T02:45:26.462Z,1.20
2018-04-01T02:47:53.604Z,1.20
2018-04-01T02:50:21.487Z,1.20
2018-04-01T02:52:48.650Z,1.20
2018-04-01T02:55:15.735Z,1.20
2018-04-01T02:57:42.828Z,1.20
2018-04-01T03:00:10.015Z,1.20
2018-04-01T03:02:37.114Z,1.30
2018-04-01T03:05:04.257Z,1.20
2018-04-01T03:07:32.138Z,1.30
2018-04-01T03:09:59.286Z,1.20
2018-04-01T03:12:27.165Z,1.30
2018-04-01T03:14:54.304Z,1.20
2018-04-01T03:17:21.396Z,1.30
2018-04-01T03:19:48.485Z,1.30
2018-04-01T03:22:16.355Z,1.30
2018-04-01T03:24:44.223Z,1.30
2018-04-01T03:27:12.178Z,1.30
2018-04-01T03:29:40.052Z,1.20
2018-04-01T03:32:07.945Z,1.30
2018-04-01T03:34:35.052Z,1.20
2018-04-01T03:37:02.169Z,1.30
2018-04-01T03:39:29.285Z,1.20
2018-04-01T03:41:56.400Z,1.20
2018-04-01T03:44:23.494Z,1.20
2018-04-01T03:46:50.604Z,1.30
2018-04-01T03:49:18.477Z,1.30
2018-04-01T03:51:46.354Z,1.30
2018-04-01T03:54:13.456Z,1.20
2018-04-01T03:56:40.545Z,1.30
2018-04-01T03:59:08.423Z,1.30
2018-04-01T04:01:35.535Z,1.30
2018-04-01T04:04:02.654Z,1.30
2018-04-01T04:06:29.766Z,1.30
2018-04-01T04:08:56.897Z,1.30
2018-04-01T04:11:24.750Z,1.30
2018-04-01T04:13:51.842Z,1.30
2018-04-01T04:16:18.947Z,1.20
2018-04-01T04:18:46.027Z,1.20
2018-04-01T04:21:13.143Z,1.20
2018-04-01T04:23:40.234Z,1.20
2018-04-01T04:26:07.358Z,1.30
2018-04-01T04:28:35.228Z,1.20
2018-04-01T04:31:02.357Z,1.20
2018-04-01T04:33:30.212Z,1.20
2018-04-01T04:35:57.327Z,1.20
2018-04-01T04:38:24.424Z,1.20
2018-04-01T04:40:52.303Z,1.20
2018-04-01T04:43:20.169Z,1.20
2018-04-01T04:45:47.263Z,1.20
2018-04-01T04:48:15.160Z,1.20
2018-04-01T04:50:43.037Z,1.30
2018-04-01T04:53:10.910Z,1.30
2018-04-01T04:55:38.916Z,1.30
2018-04-01T04:58:06.043Z,1.30
2018-04-01T05:00:33.148Z,1.30
2018-04-01T05:03:00.261Z,1.30
2018-04-01T05:05:27.371Z,1.20
2018-04-01T05:07:55.239Z,1.20
2018-04-01T05:10:23.104Z,1.30
2018-04-01T05:12:50.966Z,1.30
2018-04-01T05:15:18.875Z,1.30
2018-04-01T05:17:45.964Z,1.30
2018-04-01T05:20:13.090Z,1.30
2018-04-01T05:22:40.217Z,1.30
2018-04-01T05:25:07.341Z,1.30
2018-04-01T05:27:34.438Z,1.30
2018-04-01T05:30:01.544Z,1.30
2018-04-01T05:32:28.645Z,1.30
2018-04-01T05:34:55.733Z,1.30
2018-04-01T05:37:22.856Z,1.30
2018-04-01T05:39:50.717Z,1.30
2018-04-01T05:42:17.825Z,1.30
2018-04-01T05:44:44.914Z,1.30
2018-04-01T05:47:12.044Z,1.30
2018-04-01T05:49:39.152Z,1.30
2018-04-01T05:52:06.283Z,1.30
2018-04-01T05:54:33.381Z,1.30
2018-04-01T05:57:00.523Z,1.30
2018-04-01T05:59:27.636Z,1.30
2018-04-01T06:01:54.732Z,1.30
2018-04-01T06:04:21.906Z,1.30
2018-04-01T06:06:49.797Z,1.30
2018-04-01T06:09:17.658Z,1.30
2018-04-01T06:11:45.523Z,1.30
2018-04-01T06:14:13.431Z,1.30
2018-04-01T06:16:40.512Z,1.30
2018-04-01T06:19:07.613Z,1.30
2018-04-01T06:21:34.715Z,1.40
2018-04-01T06:24:01.820Z,1.40
2018-04-01T06:26:28.923Z,1.30
2018-04-01T06:28:56.794Z,1.40
2018-04-01T06:31:24.687Z,1.40
2018-04-01T06:33:51.788Z,1.40
2018-04-01T06:36:18.934Z,1.40
2018-04-01T06:38:46.034Z,1.40
2018-04-01T06:41:13.188Z,1.40
2018-04-01T06:43:40.281Z,1.40
2018-04-01T06:46:07.516Z,1.40
2018-04-01T06:48:34.611Z,1.40
2018-04-01T06:51:01.691Z,1.40
2018-04-01T06:53:28.813Z,1.50
2018-04-01T06:55:55.915Z,1.50
2018-04-01T06:58:23.055Z,1.50
2018-04-01T07:00:50.153Z,1.50
2018-04-01T07:03:17.291Z,1.50
2018-04-01T07:05:45.148Z,1.50
2018-04-01T07:08:13.017Z,1.60
2018-04-01T07:10:40.861Z,1.60
2018-04-01T07:13:07.988Z,1.60
2018-04-01T07:15:35.080Z,1.60
2018-04-01T07:18:02.963Z,1.60
2018-04-01T07:20:30.073Z,1.60
2018-04-01T07:22:57.161Z,1.60
2018-04-01T07:25:24.308Z,1.70
2018-04-01T07:27:51.404Z,1.70
2018-04-01T07:30:18.513Z,1.70
2018-04-01T07:32:45.616Z,1.70
2018-04-01T07:35:12.720Z,1.70
2018-04-01T07:37:39.821Z,1.80
2018-04-01T07:40:07.693Z,1.80
2018-04-01T07:42:35.554Z,1.80
2018-04-01T07:45:03.442Z,1.80
2018-04-01T07:47:30.520Z,1.80
2018-04-01T07:49:57.603Z,1.80
2018-04-01T07:52:24.714Z,1.90
2018-04-01T07:54:51.812Z,1.80
2018-04-01T07:57:19.698Z,1.90
2018-04-01T07:59:46.814Z,1.90
2018-04-01T08:02:13.933Z,1.90
2018-04-01T08:04:41.038Z,1.90
2018-04-01T08:07:08.941Z,2.00
2018-04-01T08:09:36.040Z,2.00
2018-04-01T08:12:04.026Z,2.10
2018-04-01T08:14:31.117Z,2.10
2018-04-01T08:16:58.250Z,2.10
2018-04-01T08:19:25.351Z,2.10
2018-04-01T08:21:53.282Z,2.20
2018-04-01T08:24:20.392Z,2.20
2018-04-01T08:26:47.479Z,2.20
2018-04-01T08:29:14.592Z,2.20
2018-04-01T08:31:41.688Z,2.30
2018-04-01T08:34:09.588Z,2.30
2018-04-01T08:36:37.456Z,2.30
2018-04-01T08:39:05.335Z,2.30
2018-04-01T08:41:32.430Z,2.30
2018-04-01T08:43:59.532Z,2.30
2018-04-01T08:46:26.644Z,2.40
2018-04-01T08:48:54.393Z,2.40
2018-04-01T08:51:21.505Z,2.40
2018-04-01T08:53:48.609Z,2.40
2018-04-01T08:56:15.714Z,2.50
2018-04-01T08:58:42.793Z,2.50
2018-04-01T09:01:09.924Z,2.50
2018-04-01T09:03:37.027Z,2.60
2018-04-01T09:06:04.165Z,2.60
2018-04-01T09:08:32.038Z,2.70
2018-04-01T09:11:00.187Z,2.70
2018-04-01T09:13:27.265Z,2.70
2018-04-01T09:15:54.380Z,2.70
2018-04-01T09:18:21.465Z,2.80
2018-04-01T09:20:48.568Z,2.70
2018-04-01T09:23:15.684Z,2.70
2018-04-01T09:25:42.785Z,2.70
2018-04-01T09:28:10.704Z,2.70
2018-04-01T09:30:37.819Z,2.70
2018-04-01T09:33:04.951Z,2.80
2018-04-01T09:35:32.815Z,2.80
2018-04-01T09:38:00.774Z,2.70
2018-04-01T09:40:27.886Z,2.70
2018-04-01T09:42:54.992Z,2.70
2018-04-01T09:45:22.860Z,2.70
2018-04-01T09:47:49.980Z,2.70
2018-04-01T09:50:17.076Z,2.70
2018-04-01T09:52:44.153Z,2.80
2018-04-01T09:55:11.288Z,2.80
2018-04-01T09:57:38.388Z,2.80
2018-04-01T10:00:06.277Z,2.80
2018-04-01T10:02:33.852Z,2.80
2018-04-01T10:05:10.241Z,2.80
2018-04-01T10:07:37.815Z,2.80
2018-04-01T10:10:05.522Z,2.90
2018-04-01T10:12:33.098Z,2.80
2018-04-01T10:15:00.697Z,2.80
2018-04-01T10:17:28.291Z,2.80
2018-04-01T10:19:56.665Z,2.80
2018-04-01T10:22:25.010Z,2.90
2018-04-01T10:24:52.587Z,2.80
2018-04-01T10:27:20.971Z,3.00
2018-04-01T10:29:49.336Z,2.90
2018-04-01T10:32:16.936Z,2.90
2018-04-01T10:34:44.508Z,3.00
2018-04-01T10:37:12.100Z,2.90
2018-04-01T10:39:39.692Z,3.00
2018-04-01T10:42:08.053Z,3.10
2018-04-01T10:44:35.623Z,3.10
2018-04-01T10:47:03.990Z,3.00
2018-04-01T10:49:31.576Z,3.00
2018-04-01T10:51:59.170Z,3.00
2018-04-01T10:54:26.253Z,3.00
2018-04-01T10:56:53.364Z,3.00
2018-04-01T10:59:20.464Z,3.00
2018-04-01T11:01:48.371Z,3.10
2018-04-01T11:04:15.526Z,3.10
2018-04-01T11:06:42.641Z,3.00
2018-04-01T11:09:09.767Z,3.10
2018-04-01T11:11:36.878Z,3.20
2018-04-01T11:14:04.009Z,3.30
2018-04-01T11:16:31.093Z,3.20
2018-04-01T11:18:58.211Z,3.20
2018-04-01T11:21:25.291Z,3.10
2018-04-01T11:23:52.396Z,3.00
2018-04-01T11:26:19.480Z,3.10
2018-04-01T11:28:46.970Z,3.10
2018-04-01T11:31:14.848Z,3.10
2018-04-01T11:33:41.969Z,3.10
2018-04-01T11:36:09.095Z,3.00
2018-04-01T11:38:36.191Z,3.00
2018-04-01T11:41:04.066Z,3.00
2018-04-01T11:43:31.156Z,3.00
2018-04-01T11:45:58.276Z,3.10
2018-04-01T11:48:25.361Z,3.00
2018-04-01T11:50:52.460Z,3.00
2018-04-01T11:53:19.579Z,3.00
2018-04-01T11:55:47.429Z,3.00
2018-04-01T11:58:14.555Z,3.00
2018-04-01T12:00:42.451Z,3.10
2018-04-01T12:03:09.572Z,3.10
2018-04-01T12:05:36.652Z,3.10
2018-04-01T12:08:04.483Z,3.10
2018-04-01T12:10:31.596Z,3.10
2018-04-01T12:12:58.740Z,3.10
2018-04-01T12:15:25.847Z,3.10
2018-04-01T12:17:52.973Z,3.20
2018-04-01T12:20:20.094Z,3.30
2018-04-01T12:22:47.176Z,3.50
2018-04-01T12:25:14.275Z,3.50
2018-04-01T12:27:42.193Z,3.30
2018-04-01T12:30:09.297Z,3.30
2018-04-01T12:32:36.397Z,3.30
2018-04-01T12:35:03.513Z,3.40
2018-04-01T12:37:30.626Z,3.50
2018-04-01T12:39:58.580Z,3.40
2018-04-01T12:42:25.695Z,3.40
2018-04-01T12:44:52.801Z,3.40
2018-04-01T12:47:20.675Z,3.40
2018-04-01T12:49:47.813Z,3.30
2018-04-01T12:52:15.665Z,3.40
2018-04-01T12:54:42.748Z,3.40
2018-04-01T12:57:09.862Z,3.30
2018-04-01T12:59:37.720Z,3.40
2018-04-01T13:02:04.864Z,3.40
2018-04-01T13:04:31.961Z,3.40
2018-04-01T13:06:59.084Z,3.30
2018-04-01T13:09:26.933Z,3.30
2018-04-01T13:11:54.059Z,3.30
2018-04-01T13:14:21.163Z,3.30
2018-04-01T13:16:48.545Z,3.20
2018-04-01T13:19:15.648Z,3.10
2018-04-01T13:21:43.519Z,3.10
2018-04-01T13:24:11.393Z,3.20
2018-04-01T13:26:38.497Z,3.20
2018-04-01T13:29:05.904Z,3.40
2018-04-01T13:31:33.043Z,3.50
2018-04-01T13:34:00.149Z,3.60
2018-04-01T13:36:27.292Z,3.70
2018-04-01T13:38:54.390Z,3.60
2018-04-01T13:41:21.497Z,3.60
2018-04-01T13:43:48.758Z,3.50
2018-04-01T13:46:15.850Z,3.40
2018-04-01T13:48:42.968Z,3.50
2018-04-01T13:51:10.836Z,3.70
2018-04-01T13:53:38.704Z,3.70
2018-04-01T13:56:06.575Z,3.60
2018-04-01T13:58:34.475Z,3.50
2018-04-01T14:01:01.563Z,3.50
2018-04-01T14:03:28.673Z,3.50
2018-04-01T14:05:55.789Z,3.50
2018-04-01T14:08:23.655Z,3.50
2018-04-01T14:10:50.793Z,3.50
2018-04-01T14:13:18.666Z,3.40
2018-04-01T14:15:45.777Z,3.40
2018-04-01T14:18:12.875Z,3.40
2018-04-01T14:20:40.015Z,3.40
2018-04-01T14:23:07.099Z,3.40
2018-04-01T14:25:34.220Z,3.30
2018-04-01T14:28:01.328Z,3.20
2018-04-01T14:30:28.450Z,3.10
2018-04-01T14:32:55.548Z,3.10
2018-04-01T14:35:23.475Z,3.20
2018-04-01T14:37:51.328Z,3.20
2018-04-01T14:40:18.419Z,3.20
2018-04-01T14:42:46.320Z,3.50
2018-04-01T14:45:13.424Z,3.50
2018-04-01T14:47:40.524Z,3.60
2018-04-01T14:50:07.628Z,3.50
2018-04-01T14:52:35.514Z,3.50
2018-04-01T14:55:02.872Z,3.50
2018-04-01T14:57:29.974Z,3.40
2018-04-01T14:59:57.071Z,3.40
2018-04-01T15:02:24.185Z,3.40
2018-04-01T15:04:51.288Z,3.50
2018-04-01T15:07:18.373Z,3.50
2018-04-01T15:09:45.521Z,3.60
2018-04-01T15:12:12.608Z,3.60
2018-04-01T15:14:39.710Z,3.30
2018-04-01T15:17:06.792Z,3.30
2018-04-01T15:19:34.657Z,3.20
2018-04-01T15:22:02.565Z,3.10
2018-04-01T15:24:30.404Z,3.00
2018-04-01T15:26:57.496Z,3.00
2018-04-01T15:29:24.605Z,2.90
2018-04-01T15:31:51.739Z,2.80
2018-04-01T15:34:19.632Z,2.70
2018-04-01T15:36:46.739Z,2.70
2018-04-01T15:39:14.590Z,2.70
2018-04-01T15:41:41.718Z,2.60
2018-04-01T15:44:09.570Z,2.60
2018-04-01T15:46:36.699Z,2.60
2018-04-01T15:49:03.800Z,2.60
2018-04-01T15:51:30.904Z,2.40
2018-04-01T15:53:58.035Z,2.40
2018-04-01T15:56:25.120Z,2.40
2018-04-01T15:58:52.239Z,2.50
2018-04-01T16:01:19.328Z,2.60
2018-04-01T16:03:46.467Z,2.50
2018-04-01T16:06:13.561Z,2.50
2018-04-01T16:08:41.459Z,2.50
2018-04-01T16:11:08.563Z,2.50
2018-04-01T16:13:35.723Z,2.50
2018-04-01T16:16:03.655Z,2.40
2018-04-01T16:18:30.781Z,2.30
2018-04-01T16:20:57.917Z,2.30
2018-04-01T16:23:25.016Z,2.30
2018-04-01T16:25:52.145Z,2.30
2018-04-01T16:28:19.234Z,2.30
2018-04-01T16:30:46.358Z,2.20
2018-04-01T16:33:13.448Z,2.20
2018-04-01T16:35:40.556Z,2.20
2018-04-01T16:38:07.641Z,2.20
2018-04-01T16:40:34.781Z,2.20
2018-04-01T16:43:02.648Z,2.10
2018-04-01T16:45:30.497Z,2.10
2018-04-01T16:47:57.624Z,2.10
2018-04-01T16:50:24.729Z,2.10
2018-04-01T16:52:51.836Z,2.10
2018-04-01T16:55:18.940Z,2.10
2018-04-01T16:57:46.049Z,2.10
2018-04-01T17:00:13.903Z,2.00
2018-04-01T17:02:41.023Z,2.00
2018-04-01T17:05:08.116Z,2.00
2018-04-01T17:07:36.007Z,2.00
2018-04-01T17:10:03.091Z,2.00
2018-04-01T17:12:30.219Z,2.00
2018-04-01T17:14:57.323Z,2.00
2018-04-01T17:17:25.177Z,1.90
2018-04-01T17:19:53.118Z,1.90
2018-04-01T17:22:20.235Z,1.90
2018-04-01T17:24:47.372Z,1.90
2018-04-01T17:27:14.479Z,1.90
2018-04-01T17:29:41.597Z,1.90
2018-04-01T17:32:08.704Z,1.90
2018-04-01T17:34:36.588Z,1.90
2018-04-01T17:37:03.724Z,1.90
2018-04-01T17:39:30.860Z,1.90
2018-04-01T17:41:58.748Z,2.10
2018-04-01T17:44:25.838Z,2.10
2018-04-01T17:46:52.948Z,2.10
2018-04-01T17:49:20.060Z,2.10
2018-04-01T17:51:47.942Z,2.10
2018-04-01T17:54:15.812Z,2.10
2018-04-01T17:56:42.959Z,2.00
2018-04-01T17:59:10.077Z,2.10
2018-04-01T18:01:37.203Z,2.10
2018-04-01T18:04:04.317Z,2.00
2018-04-01T18:06:31.470Z,2.00
2018-04-01T18:08:58.585Z,2.10
2018-04-01T18:11:26.478Z,2.10
2018-04-01T18:13:53.584Z,2.10
2018-04-01T18:16:20.739Z,2.10
2018-04-01T18:18:47.838Z,2.10
2018-04-01T18:21:14.958Z,2.10
2018-04-01T18:23:42.840Z,2.10
2018-04-01T18:26:09.991Z,2.10
2018-04-01T18:28:37.123Z,2.10
2018-04-01T18:31:05.007Z,2.10
2018-04-01T18:33:32.116Z,2.10
2018-04-01T18:35:59.237Z,2.10
2018-04-01T18:38:26.368Z,2.10
2018-04-01T18:40:53.474Z,2.00
2018-04-01T18:43:21.393Z,2.00
2018-04-01T18:45:48.510Z,2.00
2018-04-01T18:48:15.622Z,2.00
2018-04-01T18:50:42.739Z,2.00
2018-04-01T18:53:09.838Z,2.00
2018-04-01T18:55:37.732Z,2.00
2018-04-01T18:58:04.853Z,2.00
2018-04-01T19:00:32.751Z,2.00
2018-04-01T19:02:59.896Z,2.00
2018-04-01T19:05:27.052Z,2.00
2018-04-01T19:07:54.147Z,2.00
2018-04-01T19:10:21.661Z,2.00
2018-04-01T19:12:49.962Z,2.00
2018-04-01T19:15:17.124Z,2.00
2018-04-01T19:17:44.779Z,2.00
2018-04-01T19:20:12.464Z,2.00
2018-04-01T19:22:40.866Z,2.00
2018-04-01T19:25:08.494Z,2.00
2018-04-01T19:27:36.092Z,2.10
2018-04-01T19:30:03.693Z,2.00
2018-04-01T19:32:31.308Z,2.00
2018-04-01T19:34:59.341Z,2.00
2018-04-01T19:37:26.981Z,2.00
2018-04-01T19:39:54.691Z,2.00
2018-04-01T19:42:22.277Z,2.00
2018-04-01T19:44:50.900Z,1.90
2018-04-01T19:47:18.480Z,1.90
2018-04-01T19:49:47.469Z,1.80
2018-04-01T19:52:15.465Z,1.80
2018-04-01T19:54:43.631Z,1.80
2018-04-01T19:57:11.255Z,1.80
2018-04-01T19:59:39.036Z,1.80
2018-04-01T20:02:07.404Z,1.80
2018-04-01T20:04:35.712Z,1.80
2018-04-01T20:07:03.332Z,1.80
2018-04-01T20:09:30.968Z,1.80
2018-04-01T20:11:58.569Z,1.80
2018-04-01T20:14:26.210Z,1.80
2018-04-01T20:16:53.830Z,1.80
2018-04-01T20:19:21.428Z,1.80
2018-04-01T20:21:49.031Z,1.80
2018-04-01T20:24:16.630Z,1.90
2018-04-01T20:26:44.247Z,1.90
2018-04-01T20:29:12.619Z,1.90
2018-04-01T20:31:41.014Z,1.90
2018-04-01T20:34:08.597Z,1.90
2018-04-01T20:36:36.193Z,1.80
2018-04-01T20:39:03.801Z,1.80
2018-04-01T20:41:31.410Z,1.70
2018-04-01T20:43:59.087Z,1.80
2018-04-01T20:46:27.456Z,1.90
2018-04-01T20:48:55.056Z,1.90
2018-04-01T20:51:22.641Z,1.90
2018-04-01T20:53:50.271Z,2.00
2018-04-01T20:56:17.897Z,2.00
2018-04-01T20:58:45.464Z,2.00
2018-04-01T21:01:13.079Z,2.00
2018-04-01T21:03:40.676Z,2.10
2018-04-01T21:06:08.291Z,2.20
2018-04-01T21:08:35.888Z,2.20
2018-04-01T21:11:03.512Z,2.20
2018-04-01T21:13:31.150Z,2.30
2018-04-01T21:15:58.772Z,2.30
2018-04-01T21:18:26.385Z,2.40
2018-04-01T21:20:53.992Z,2.40
2018-04-01T21:23:21.611Z,2.40
2018-04-01T21:25:49.220Z,2.40
2018-04-01T21:28:17.633Z,2.50
2018-04-01T21:30:45.230Z,2.50
2018-04-01T21:33:13.617Z,2.50
2018-04-01T21:35:41.217Z,2.50
2018-04-01T21:38:08.847Z,2.60
2018-04-01T21:40:36.451Z,2.60
2018-04-01T21:43:04.080Z,2.60
2018-04-01T21:45:32.428Z,2.70
2018-04-01T21:48:00.055Z,2.60
2018-04-01T21:50:27.676Z,2.60
2018-04-01T21:52:56.066Z,2.70
2018-04-01T21:55:24.433Z,2.60
2018-04-01T21:57:52.040Z,2.60
2018-04-01T22:00:19.677Z,2.70
2018-04-01T22:02:47.282Z,2.70
2018-04-01T22:05:14.900Z,2.70
2018-04-01T22:07:42.500Z,2.70
2018-04-01T22:10:10.124Z,2.70
2018-04-01T22:12:37.738Z,2.70
2018-04-01T22:15:05.385Z,2.70
2018-04-01T22:17:33.011Z,2.70
2018-04-01T22:20:00.600Z,2.70
2018-04-01T22:22:28.201Z,2.70
2018-04-01T22:24:56.565Z,2.70
2018-04-01T22:27:24.187Z,2.70
2018-04-01T22:29:51.771Z,2.70
2018-04-01T22:32:19.390Z,2.60
2018-04-01T22:34:46.965Z,2.60
2018-04-01T22:37:14.585Z,2.60
2018-04-01T22:39:42.173Z,2.60
2018-04-01T22:42:09.891Z,2.60
2018-04-01T22:44:38.265Z,2.40
2018-04-01T22:47:05.865Z,2.40
2018-04-01T22:49:33.460Z,2.40
2018-04-01T22:52:01.070Z,2.40
2018-04-01T22:54:28.684Z,2.40
2018-04-01T22:56:56.269Z,2.30
2018-04-01T22:59:23.894Z,2.20
2018-04-01T23:01:51.480Z,2.20
2018-04-01T23:04:19.890Z,2.00
2018-04-01T23:06:47.480Z,2.00
2018-04-01T23:09:15.112Z,1.90
2018-04-01T23:11:42.702Z,1.90
2018-04-01T23:14:10.344Z,1.80
2018-04-01T23:16:37.945Z,1.80
2018-04-01T23:19:05.527Z,1.70
2018-04-01T23:21:33.926Z,1.70
2018-04-01T23:24:01.552Z,1.70
2018-04-01T23:26:29.156Z,1.70
2018-04-01T23:28:56.743Z,1.70
2018-04-01T23:31:24.375Z,1.60
2018-04-01T23:33:51.966Z,1.60
2018-04-01T23:36:19.567Z,1.60
2018-04-01T23:38:47.922Z,1.50
2018-04-01T23:41:15.539Z,1.50
2018-04-01T23:43:43.125Z,1.50
2018-04-01T23:46:10.749Z,1.50
2018-04-01T23:48:38.351Z,1.50
2018-04-01T23:51:05.952Z,1.40
2018-04-01T23:53:33.568Z,1.50
2018-04-01T23:56:01.156Z,1.50
2018-04-01T23:58:29.557Z,1.60
